Time;durP1;ratioP1;P1;durP2;ratioP2;P2;SDS_P1;SDS_P2;PMS_P1;PMS_P2;Temp;Humidity;BMP_temperature;BMP_pressure;BME280_temperature;BME280_humidity;BME280_pressure;Samples;Min_cycle;Max_cycle;Signal;HPM_P1;HPM_P2
2022/06/21 00:00:05;;;;;;;2.80;1.70;;;;;24.70;100590.00;;;;2043558;28;20786;-67
2022/06/21 00:01:05;;;;;;;1.95;1.60;;;;;24.70;100596.00;;;;2035499;29;20220;-67
2022/06/21 00:02:06;;;;;;;2.47;1.70;;;;;24.70;100594.00;;;;2042801;28;20220;-67
2022/06/21 00:03:11;;;;;;;2.67;1.90;;;;;24.70;100566.00;;;;2042381;28;20689;-67
2022/06/21 00:04:11;;;;;;;3.28;1.92;;;;;24.70;100601.00;;;;2043005;29;20213;-67
2022/06/21 00:05:19;;;;;;;1.97;1.60;;;;;24.70;100599.00;;;;2043584;28;20217;-67
2022/06/21 00:06:21;;;;;;;3.08;1.75;;;;;24.70;100596.00;;;;2035686;28;20216;-67
2022/06/21 00:07:23;;;;;;;3.40;1.90;;;;;24.70;100605.00;;;;2035930;28;20213;-67
2022/06/21 00:08:31;;;;;;;2.33;1.70;;;;;24.70;100571.00;;;;2035023;29;20252;-67
2022/06/21 00:09:31;;;;;;;2.10;1.70;;;;;24.70;100587.00;;;;2029134;29;20308;-67
2022/06/21 00:10:34;;;;;;;2.27;2.00;;;;;24.70;100592.00;;;;2046484;28;20216;-67
2022/06/21 00:11:34;;;;;;;3.35;2.20;;;;;24.70;100603.00;;;;2043675;28;20228;-67
2022/06/21 00:12:35;;;;;;;1.97;1.57;;;;;24.70;100604.00;;;;2042931;28;20307;-67
2022/06/21 00:13:35;;;;;;;2.47;1.67;;;;;24.70;100595.00;;;;2026511;29;20230;-67
2022/06/21 00:14:35;;;;;;;2.00;1.60;;;;;24.70;100601.00;;;;2035268;29;20221;-67
2022/06/21 00:15:36;;;;;;;2.53;1.80;;;;;24.70;100595.00;;;;2043828;28;20566;-67
2022/06/21 00:16:36;;;;;;;2.13;1.50;;;;;24.70;100601.00;;;;2042839;28;20252;-67
2022/06/21 00:17:45;;;;;;;1.63;1.50;;;;;24.70;100591.00;;;;2043000;28;20220;-67
2022/06/21 00:18:46;;;;;;;2.58;1.70;;;;;24.70;100586.00;;;;2042448;28;20307;-67
2022/06/21 00:19:46;;;;;;;1.60;1.50;;;;;24.70;100590.00;;;;2034054;29;20720;-67
2022/06/21 00:20:46;;;;;;;3.80;2.10;;;;;24.70;100594.00;;;;2041619;28;20291;-67
2022/06/21 00:21:47;;;;;;;2.27;1.83;;;;;24.70;100592.00;;;;2035125;28;20217;-68
2022/06/21 00:22:48;;;;;;;1.70;1.57;;;;;24.70;100586.00;;;;2035090;28;20709;-67
2022/06/21 00:23:50;;;;;;;2.45;1.90;;;;;24.70;100593.00;;;;2043225;28;20343;-67
2022/06/21 00:24:51;;;;;;;2.83;1.73;;;;;24.70;100598.00;;;;2035303;29;20275;-67
2022/06/21 00:25:51;;;;;;;3.00;1.70;;;;;24.60;100587.00;;;;2042154;29;20684;-67
2022/06/21 00:26:52;;;;;;;2.17;1.70;;;;;24.70;100580.00;;;;2043722;28;20212;-67
2022/06/21 00:27:53;;;;;;;2.47;1.37;;;;;24.70;100583.00;;;;2042616;28;20216;-67
2022/06/21 00:28:53;;;;;;;2.38;1.90;;;;;24.70;100582.00;;;;2042972;28;20603;-67
2022/06/21 00:29:53;;;;;;;2.37;1.77;;;;;24.70;100587.00;;;;2043500;28;20232;-67
2022/06/21 00:30:54;;;;;;;2.37;1.50;;;;;24.70;100573.00;;;;2043847;28;20249;-67
2022/06/21 00:31:55;;;;;;;2.47;1.60;;;;;24.70;100583.00;;;;2043067;28;20605;-67
2022/06/21 00:32:55;;;;;;;1.80;1.40;;;;;24.70;100589.00;;;;2035231;28;20727;-67
2022/06/21 00:33:55;;;;;;;2.03;1.60;;;;;24.70;100577.00;;;;2042385;28;20725;-67
2022/06/21 00:34:56;;;;;;;2.00;1.60;;;;;24.60;100596.00;;;;2042236;29;20639;-67
2022/06/21 00:35:58;;;;;;;1.40;1.30;;;;;24.60;100571.00;;;;2036983;28;20216;-67
2022/06/21 00:36:59;;;;;;;2.47;1.60;;;;;24.70;100594.00;;;;2034780;28;20217;-67
2022/06/21 00:37:59;;;;;;;2.03;1.48;;;;;24.60;100591.00;;;;2035149;28;20218;-67
2022/06/21 00:39:00;;;;;;;1.40;1.30;;;;;24.60;100594.00;;;;2027769;29;20753;-67
2022/06/21 00:40:01;;;;;;;1.67;1.53;;;;;24.60;100592.00;;;;2035713;28;20978;-67
2022/06/21 00:41:04;;;;;;;2.70;1.40;;;;;24.60;100587.00;;;;2044197;28;20816;-67
2022/06/21 00:42:19;;;;;;;1.98;1.58;;;;;24.60;100600.00;;;;2034574;28;20209;-67
2022/06/21 00:43:27;;;;;;;3.38;1.50;;;;;24.60;100580.00;;;;2028273;29;20293;-67
2022/06/21 00:44:54;;;;;;;3.00;1.60;;;;;24.60;100595.00;;;;2030279;29;20290;-67
2022/06/21 00:45:54;;;;;;;1.92;1.55;;;;;24.60;100591.00;;;;2037347;28;20205;-67
2022/06/21 00:47:05;;;;;;;3.27;1.57;;;;;24.60;100595.00;;;;2042996;28;20239;-67
2022/06/21 00:48:20;;;;;;;2.67;1.48;;;;;24.60;100593.00;;;;2042231;29;20256;-67
2022/06/21 00:49:24;;;;;;;2.25;1.70;;;;;24.60;100598.00;;;;2035214;28;20212;-67
2022/06/21 00:50:33;;;;;;;1.83;1.70;;;;;24.60;100605.00;;;;2033796;28;20327;-67
2022/06/21 00:51:39;;;;;;;1.60;1.30;;;;;24.60;100583.00;;;;2034670;28;20297;-67
2022/06/21 00:52:45;;;;;;;2.38;1.73;;;;;24.60;100605.00;;;;2026056;29;20223;-67
2022/06/21 00:54:05;;;;;;;2.17;1.60;;;;;24.60;100600.00;;;;2035373;28;20229;-67
2022/06/21 00:55:13;;;;;;;2.00;1.40;;;;;24.60;100599.00;;;;2029295;29;20285;-67
2022/06/21 00:56:23;;;;;;;2.25;1.45;;;;;24.60;100598.00;;;;2022356;29;20218;-67
2022/06/21 00:57:27;;;;;;;2.47;1.65;;;;;24.60;100602.00;;;;2028855;28;20218;-67
2022/06/21 00:58:27;;;;;;;1.80;1.58;;;;;24.60;100596.00;;;;2042661;28;20280;-67
2022/06/21 00:59:29;;;;;;;2.97;1.63;;;;;24.60;100596.00;;;;2043401;28;20283;-67
2022/06/21 01:00:39;;;;;;;2.22;1.58;;;;;24.60;100600.00;;;;2042623;28;20225;-67
2022/06/21 01:01:40;;;;;;;1.45;1.35;;;;;24.60;100590.00;;;;2033997;29;20221;-68
2022/06/21 01:02:40;;;;;;;2.43;1.80;;;;;24.60;100591.00;;;;2034355;28;20241;-67
2022/06/21 01:03:55;;;;;;;2.37;1.50;;;;;24.60;100587.00;;;;2043315;28;20217;-66
2022/06/21 01:04:56;;;;;;;1.45;1.30;;;;;24.60;100577.00;;;;2042050;28;20615;-67
2022/06/21 01:05:56;;;;;;;2.60;1.85;;;;;24.60;100565.00;;;;2041925;28;20243;-67
2022/06/21 01:06:59;;;;;;;2.10;1.47;;;;;24.60;100583.00;;;;2041439;28;20283;-67
2022/06/21 01:07:59;;;;;;;1.75;1.50;;;;;24.60;100587.00;;;;2034220;28;20218;-67
2022/06/21 01:09:07;;;;;;;2.27;1.47;;;;;24.60;100575.00;;;;2042213;28;20890;-67
2022/06/21 01:10:09;;;;;;;2.38;1.95;;;;;24.50;100586.00;;;;2042804;28;20235;-67
2022/06/21 01:11:13;;;;;;;1.83;1.50;;;;;24.60;100587.00;;;;2034573;28;20220;-67
2022/06/21 01:12:19;;;;;;;1.90;1.50;;;;;24.60;100582.00;;;;2034761;28;20696;-67
2022/06/21 01:13:22;;;;;;;2.00;1.33;;;;;24.60;100583.00;;;;2041780;29;20208;-67
2022/06/21 01:14:23;;;;;;;2.42;1.70;;;;;24.60;100577.00;;;;2041652;28;20216;-67
2022/06/21 01:15:36;;;;;;;2.07;1.60;;;;;24.60;100583.00;;;;2034397;29;20576;-67
2022/06/21 01:16:36;;;;;;;2.67;1.38;;;;;24.60;100589.00;;;;2036227;28;20218;-67
2022/06/21 01:17:37;;;;;;;2.60;1.43;;;;;24.60;100575.00;;;;2034700;28;20272;-67
2022/06/21 01:18:37;;;;;;;1.50;1.40;;;;;24.60;100583.00;;;;2035285;28;20223;-67
2022/06/21 01:19:42;;;;;;;2.27;1.83;;;;;24.60;100580.00;;;;2034998;29;20496;-67
2022/06/21 01:20:49;;;;;;;1.73;1.63;;;;;24.60;100573.00;;;;2035496;28;20217;-67
2022/06/21 01:21:50;;;;;;;1.95;1.55;;;;;24.60;100569.00;;;;2035585;29;20229;-67
2022/06/21 01:22:53;;;;;;;1.65;1.38;;;;;24.60;100574.00;;;;2026466;29;20230;-67
2022/06/21 01:24:23;;;;;;;2.20;1.75;;;;;24.50;100572.00;;;;2035185;29;20225;-67
2022/06/21 01:25:57;;;;;;;2.22;1.65;;;;;24.60;100570.00;;;;2040008;28;20716;-67
2022/06/21 01:26:59;;;;;;;2.20;1.65;;;;;24.50;100563.00;;;;2033924;29;20225;-66
2022/06/21 01:27:59;;;;;;;3.08;1.65;;;;;24.50;100551.00;;;;2025058;29;20217;-67
2022/06/21 01:29:00;;;;;;;2.30;1.83;;;;;24.50;100568.00;;;;2038672;29;20237;-67
2022/06/21 01:30:01;;;;;;;2.70;1.50;;;;;24.50;100558.00;;;;2044186;28;20224;-67
2022/06/21 01:31:01;;;;;;;1.92;1.70;;;;;24.50;100563.00;;;;2037750;29;20237;-67
2022/06/21 01:32:04;;;;;;;3.40;1.63;;;;;24.50;100561.00;;;;2038666;29;20606;-67
2022/06/21 01:33:05;;;;;;;1.83;1.70;;;;;24.50;100575.00;;;;2045547;28;20220;-66
2022/06/21 01:34:12;;;;;;;2.30;1.50;;;;;24.50;100569.00;;;;2042260;28;20312;-67
2022/06/21 01:35:15;;;;;;;2.47;1.50;;;;;24.50;100554.00;;;;2035531;28;20228;-66
2022/06/21 01:36:42;;;;;;;2.42;1.60;;;;;24.50;100566.00;;;;2034385;28;20224;-67
2022/06/21 01:37:42;;;;;;;2.20;1.52;;;;;24.50;100561.00;;;;2034743;28;20219;-67
2022/06/21 01:38:45;;;;;;;1.60;1.40;;;;;24.50;100554.00;;;;2038589;28;20627;-67
2022/06/21 01:39:55;;;;;;;2.88;1.70;;;;;24.50;100563.00;;;;2037904;28;20240;-67
2022/06/21 01:40:58;;;;;;;1.60;1.50;;;;;24.50;100570.00;;;;2039762;29;20523;-66
2022/06/21 01:42:16;;;;;;;3.30;1.83;;;;;24.50;100549.00;;;;2042695;28;20663;-67
2022/06/21 01:43:22;;;;;;;2.47;1.60;;;;;24.50;100487.00;;;;2036485;29;20259;-67
2022/06/21 01:44:26;;;;;;;2.25;1.65;;;;;24.50;100564.00;;;;2041858;28;20227;-67
2022/06/21 01:45:28;;;;;;;3.08;1.60;;;;;24.50;100559.00;;;;2042166;28;20235;-66
2022/06/21 01:46:30;;;;;;;1.90;1.70;;;;;24.50;100559.00;;;;2041225;28;20228;-67
2022/06/21 01:47:35;;;;;;;1.42;1.10;;;;;24.50;100556.00;;;;2024703;28;20666;-67
2022/06/21 01:48:39;;;;;;;1.80;1.70;;;;;24.50;100547.00;;;;2034957;28;20769;-67
2022/06/21 01:49:43;;;;;;;3.08;1.50;;;;;24.50;100535.00;;;;2029855;29;20221;-67
2022/06/21 01:50:44;;;;;;;3.85;1.30;;;;;24.50;100547.00;;;;2027358;29;20716;-67
2022/06/21 01:51:50;;;;;;;2.00;1.80;;;;;24.50;100557.00;;;;2037793;28;20244;-67
2022/06/21 01:52:52;;;;;;;2.10;1.70;;;;;24.50;100557.00;;;;2029659;29;20226;-66
2022/06/21 01:53:52;;;;;;;2.05;1.88;;;;;24.50;100556.00;;;;2026742;29;20214;-67
2022/06/21 01:54:59;;;;;;;3.47;1.50;;;;;24.50;100550.00;;;;2030455;29;20641;-67
2022/06/21 01:56:02;;;;;;;2.42;1.85;;;;;24.50;100547.00;;;;2023393;29;20234;-67
2022/06/21 01:57:03;;;;;;;1.98;1.45;;;;;24.50;100544.00;;;;2031569;29;20297;-68
2022/06/21 01:58:04;;;;;;;2.07;1.43;;;;;24.50;100552.00;;;;2041698;28;20216;-67
2022/06/21 01:59:08;;;;;;;2.50;2.00;;;;;24.50;100555.00;;;;2042905;28;20224;-67
2022/06/21 02:00:09;;;;;;;1.63;1.52;;;;;24.50;100555.00;;;;2035107;28;20308;-67
2022/06/21 02:01:18;;;;;;;2.50;1.70;;;;;24.50;100531.00;;;;2035505;29;20202;-67
2022/06/21 02:02:29;;;;;;;2.58;1.60;;;;;24.50;100567.00;;;;2034217;29;20221;-67
2022/06/21 02:03:32;;;;;;;2.00;1.80;;;;;24.50;100562.00;;;;2035109;28;20252;-67
2022/06/21 02:04:36;;;;;;;1.70;1.55;;;;;24.50;100550.00;;;;2038412;29;20221;-67
2022/06/21 02:05:39;;;;;;;1.85;1.45;;;;;24.50;100556.00;;;;2042229;28;20620;-66
2022/06/21 02:06:41;;;;;;;2.00;1.80;;;;;24.50;100552.00;;;;2041777;28;20220;-67
2022/06/21 02:07:44;;;;;;;2.08;1.70;;;;;24.50;100555.00;;;;2041198;28;20221;-67
2022/06/21 02:08:47;;;;;;;3.25;1.73;;;;;24.50;100553.00;;;;2042128;28;20231;-67
2022/06/21 02:09:51;;;;;;;1.92;1.52;;;;;24.50;100550.00;;;;2026990;29;20305;-67
2022/06/21 02:10:54;;;;;;;1.90;1.70;;;;;24.50;100546.00;;;;2028082;29;20306;-66
2022/06/21 02:12:08;;;;;;;1.70;1.40;;;;;24.50;100530.00;;;;2027312;29;20276;-67
2022/06/21 02:13:32;;;;;;;2.47;1.38;;;;;24.50;100554.00;;;;2037609;28;20283;-67
2022/06/21 02:14:39;;;;;;;2.15;1.92;;;;;24.50;100543.00;;;;2046201;28;20299;-67
2022/06/21 02:15:43;;;;;;;1.80;1.70;;;;;24.50;100551.00;;;;2042361;28;20659;-67
2022/06/21 02:16:45;;;;;;;1.50;1.40;;;;;24.50;100550.00;;;;2042716;28;20220;-67
2022/06/21 02:17:45;;;;;;;1.60;1.50;;;;;24.50;100551.00;;;;2034739;29;20336;-67
2022/06/21 02:18:50;;;;;;;1.70;1.53;;;;;24.50;100550.00;;;;2035034;28;20783;-66
2022/06/21 02:20:23;;;;;;;2.10;1.55;;;;;24.50;100554.00;;;;2034068;29;20225;-67
2022/06/21 02:21:28;;;;;;;1.83;1.63;;;;;24.50;100562.00;;;;2038370;28;20224;-67
2022/06/21 02:22:29;;;;;;;1.90;1.60;;;;;24.50;100541.00;;;;2034034;28;20243;-67
2022/06/21 02:23:29;;;;;;;2.42;1.85;;;;;24.50;100562.00;;;;2032490;29;20315;-67
2022/06/21 02:24:30;;;;;;;1.80;1.43;;;;;24.10;100559.00;;;;2042895;28;20556;-67
2022/06/21 02:25:31;;;;;;;1.90;1.70;;;;;24.50;100564.00;;;;2039200;28;20224;-67
2022/06/21 02:26:31;;;;;;;1.50;1.40;;;;;24.50;100556.00;;;;2042121;28;20298;-67
2022/06/21 02:27:32;;;;;;;2.30;1.80;;;;;24.50;100551.00;;;;2033686;28;20223;-67
2022/06/21 02:28:33;;;;;;;1.63;1.52;;;;;24.40;100560.00;;;;2032910;28;20225;-66
2022/06/21 02:29:33;;;;;;;1.70;1.60;;;;;24.40;100554.00;;;;2034003;28;20225;-67
2022/06/21 02:30:36;;;;;;;2.70;1.57;;;;;24.40;100556.00;;;;2026881;28;20732;-67
2022/06/21 02:31:36;;;;;;;1.70;1.60;;;;;24.40;100570.00;;;;2042699;29;20240;-67
2022/06/21 02:32:38;;;;;;;2.43;1.60;;;;;24.40;100555.00;;;;2042657;28;20675;-66
2022/06/21 02:33:38;;;;;;;2.30;1.50;;;;;24.40;100560.00;;;;2034465;28;20604;-67
2022/06/21 02:34:39;;;;;;;1.80;1.40;;;;;24.40;100563.00;;;;2026154;29;20225;-67
2022/06/21 02:35:46;;;;;;;1.53;1.43;;;;;24.40;100559.00;;;;2026084;29;20232;-67
2022/06/21 02:36:55;;;;;;;1.70;1.40;;;;;24.40;100562.00;;;;2034992;29;20244;-67
2022/06/21 02:37:58;;;;;;;3.70;1.80;;;;;24.40;100564.00;;;;2037640;29;20217;-67
2022/06/21 02:39:00;;;;;;;1.38;1.27;;;;;24.40;100560.00;;;;2027479;29;20217;-67
2022/06/21 02:40:03;;;;;;;2.00;1.80;;;;;24.40;100555.00;;;;2026733;29;20229;-67
2022/06/21 02:41:22;;;;;;;3.15;1.85;;;;;24.40;100540.00;;;;2035674;29;20712;-67
2022/06/21 02:42:26;;;;;;;2.17;1.60;;;;;24.40;100539.00;;;;2037709;28;20728;-67
2022/06/21 02:43:30;;;;;;;2.55;1.58;;;;;24.40;100517.00;;;;2030281;29;20228;-67
2022/06/21 02:44:44;;;;;;;1.52;1.38;;;;;24.40;100548.00;;;;2030295;29;20665;-67
2022/06/21 02:45:53;;;;;;;3.03;1.50;;;;;24.40;100549.00;;;;2037796;28;20260;-67
2022/06/21 02:46:55;;;;;;;2.28;1.45;;;;;24.40;100550.00;;;;2043627;28;20216;-67
2022/06/21 02:47:56;;;;;;;1.70;1.55;;;;;24.40;100558.00;;;;2027639;29;20698;-67
2022/06/21 02:49:11;;;;;;;2.60;1.43;;;;;24.40;100562.00;;;;2026821;29;20240;-67
2022/06/21 02:50:36;;;;;;;2.50;1.90;;;;;24.40;100574.00;;;;2029616;29;20225;-67
2022/06/21 02:51:48;;;;;;;1.60;1.50;;;;;24.40;100563.00;;;;2041968;28;20231;-67
2022/06/21 02:52:48;;;;;;;2.03;1.58;;;;;24.40;100564.00;;;;2033864;29;20775;-67
2022/06/21 02:54:04;;;;;;;2.30;1.50;;;;;24.40;100542.00;;;;2026369;29;20226;-67
2022/06/21 02:55:13;;;;;;;2.88;1.70;;;;;24.40;100560.00;;;;2034828;29;20232;-67
2022/06/21 02:56:24;;;;;;;1.63;1.35;;;;;24.40;100544.00;;;;2041801;28;20373;-67
2022/06/21 02:57:43;;;;;;;3.28;1.42;;;;;24.40;100555.00;;;;2041563;28;21022;-67
2022/06/21 02:58:48;;;;;;;2.15;1.60;;;;;24.40;100557.00;;;;2041576;28;20220;-67
2022/06/21 02:59:48;;;;;;;1.95;1.30;;;;;24.40;100553.00;;;;2042196;28;20893;-67
2022/06/21 03:00:48;;;;;;;2.40;1.53;;;;;24.40;100555.00;;;;2042680;28;20229;-67
2022/06/21 03:01:57;;;;;;;1.90;1.70;;;;;24.40;100543.00;;;;2034741;28;20265;-67
2022/06/21 03:02:59;;;;;;;1.85;1.50;;;;;24.40;100546.00;;;;2041774;28;20381;-67
2022/06/21 03:03:59;;;;;;;2.00;1.80;;;;;24.40;100538.00;;;;2034113;29;20232;-67
2022/06/21 03:05:02;;;;;;;1.30;1.20;;;;;24.40;100549.00;;;;2034105;28;20710;-67
2022/06/21 03:06:03;;;;;;;2.13;1.60;;;;;24.40;100544.00;;;;2033887;29;20225;-67
2022/06/21 03:07:03;;;;;;;3.17;1.70;;;;;24.40;100540.00;;;;2022656;29;20685;-67
2022/06/21 03:08:04;;;;;;;2.10;1.60;;;;;24.40;100530.00;;;;2027788;29;20225;-67
2022/06/21 03:09:07;;;;;;;1.57;1.43;;;;;24.40;100533.00;;;;2042293;28;20692;-67
2022/06/21 03:10:22;;;;;;;2.10;1.65;;;;;24.40;100532.00;;;;2038500;29;20256;-67
2022/06/21 03:11:23;;;;;;;1.77;1.60;;;;;24.40;100513.00;;;;2029084;29;20289;-67
2022/06/21 03:12:25;;;;;;;1.70;1.53;;;;;24.40;100521.00;;;;2026415;29;20671;-67
2022/06/21 03:13:29;;;;;;;1.40;1.30;;;;;24.40;100527.00;;;;2034710;29;20482;-67
2022/06/21 03:14:30;;;;;;;1.77;1.60;;;;;24.40;100509.00;;;;2043094;28;20247;-67
2022/06/21 03:15:30;;;;;;;2.10;1.70;;;;;24.40;100526.00;;;;2042442;28;20220;-67
2022/06/21 03:16:31;;;;;;;2.67;1.60;;;;;24.40;100526.00;;;;2041841;28;20741;-67
2022/06/21 03:17:35;;;;;;;2.70;1.73;;;;;24.40;100523.00;;;;2041320;28;20548;-67
2022/06/21 03:18:42;;;;;;;1.60;1.50;;;;;24.40;100520.00;;;;2028074;28;20300;-67
2022/06/21 03:19:51;;;;;;;3.63;1.90;;;;;24.30;100513.00;;;;2040523;28;20213;-67
2022/06/21 03:20:51;;;;;;;2.47;1.60;;;;;24.30;100516.00;;;;2040967;29;20208;-67
2022/06/21 03:21:52;;;;;;;1.60;1.40;;;;;24.40;100513.00;;;;2041561;28;20703;-67
2022/06/21 03:22:53;;;;;;;2.33;1.60;;;;;24.30;100511.00;;;;2033842;29;20229;-67
2022/06/21 03:23:54;;;;;;;1.73;1.40;;;;;24.30;100495.00;;;;2042140;28;20453;-67
2022/06/21 03:24:55;;;;;;;2.03;1.67;;;;;24.30;100515.00;;;;2026676;29;20237;-67
2022/06/21 03:26:02;;;;;;;4.82;1.48;;;;;24.30;100502.00;;;;2033947;28;20237;-67
2022/06/21 03:27:12;;;;;;;1.60;1.25;;;;;24.30;100516.00;;;;2033819;29;20217;-67
2022/06/21 03:28:29;;;;;;;2.83;1.60;;;;;24.30;100512.00;;;;2034130;29;20225;-67
2022/06/21 03:29:29;;;;;;;1.48;1.30;;;;;24.30;100519.00;;;;2041955;29;20311;-67
2022/06/21 03:30:32;;;;;;;1.77;1.67;;;;;24.30;100513.00;;;;2034410;29;20222;-68
2022/06/21 03:31:34;;;;;;;2.58;1.70;;;;;24.30;100515.00;;;;2034807;29;20225;-66
2022/06/21 03:32:36;;;;;;;2.75;1.50;;;;;24.30;100514.00;;;;2042443;28;20243;-67
2022/06/21 03:33:37;;;;;;;1.75;1.65;;;;;24.30;100501.00;;;;2041431;28;20415;-67
2022/06/21 03:34:38;;;;;;;1.65;1.55;;;;;24.30;100505.00;;;;2041765;28;20656;-67
2022/06/21 03:35:38;;;;;;;1.70;1.40;;;;;24.30;100497.00;;;;2041571;28;20268;-67
2022/06/21 03:36:39;;;;;;;2.33;2.07;;;;;24.30;100501.00;;;;2033908;29;20210;-67
2022/06/21 03:37:39;;;;;;;3.13;1.67;;;;;24.30;100480.00;;;;2034975;29;20233;-67
2022/06/21 03:38:43;;;;;;;2.17;1.47;;;;;24.30;100499.00;;;;2043906;28;20228;-67
2022/06/21 03:41:43;;;;;;;2.28;1.80;;;;;24.30;100487.00;;;;2036215;28;20217;-67
2022/06/21 03:42:32;;;;;;;1.73;1.38;;;;;24.30;100487.00;;;;2034726;28;20312;-67
2022/06/21 03:43:36;;;;;;;2.00;1.80;;;;;24.30;100482.00;;;;2037969;28;20576;-67
2022/06/21 03:45:16;;;;;;;1.50;1.40;;;;;24.30;100493.00;;;;2035164;28;20712;-67
2022/06/21 03:46:29;;;;;;;1.73;1.63;;;;;24.30;100488.00;;;;2023933;29;20222;-67
2022/06/21 03:47:33;;;;;;;2.25;1.52;;;;;24.30;100488.00;;;;2030951;29;20324;-67
2022/06/21 03:48:37;;;;;;;1.65;1.48;;;;;24.30;100476.00;;;;2030637;29;20312;-67
2022/06/21 03:49:43;;;;;;;1.90;1.60;;;;;24.30;100488.00;;;;2020515;29;20222;-67
2022/06/21 03:50:49;;;;;;;2.20;1.75;;;;;24.30;100487.00;;;;2019410;29;20218;-67
2022/06/21 03:51:49;;;;;;;1.40;1.30;;;;;24.30;100498.00;;;;2028019;29;20251;-67
2022/06/21 03:52:59;;;;;;;1.67;1.57;;;;;24.30;100500.00;;;;2035060;29;20264;-67
2022/06/21 03:54:03;;;;;;;1.75;1.35;;;;;24.30;100503.00;;;;2040558;28;20221;-66
2022/06/21 03:55:09;;;;;;;2.45;1.67;;;;;24.30;100505.00;;;;2043759;28;20849;-67
2022/06/21 03:56:21;;;;;;;2.10;1.42;;;;;24.30;100502.00;;;;2043149;28;20228;-67
2022/06/21 03:57:25;;;;;;;2.15;1.55;;;;;24.20;100507.00;;;;2028534;29;20214;-67
2022/06/21 03:58:57;;;;;;;1.75;1.50;;;;;24.30;100506.00;;;;2033095;29;21030;-67
2022/06/21 04:00:06;;;;;;;3.05;1.90;;;;;24.30;100515.00;;;;2027046;29;20777;-67
2022/06/21 04:01:11;;;;;;;1.60;1.50;;;;;24.30;100517.00;;;;2039742;28;20220;-67
2022/06/21 04:02:36;;;;;;;1.80;1.60;;;;;24.30;100533.00;;;;2034875;29;20700;-67
2022/06/21 04:03:41;;;;;;;1.80;1.45;;;;;24.30;100532.00;;;;2033335;28;20216;-67
2022/06/21 04:05:05;;;;;;;1.50;1.40;;;;;24.30;100534.00;;;;2043773;28;20208;-66
2022/06/21 04:06:21;;;;;;;1.80;1.70;;;;;24.30;100535.00;;;;2035916;28;20236;-67
2022/06/21 04:07:31;;;;;;;2.17;1.60;;;;;24.30;100523.00;;;;2035682;28;20672;-66
2022/06/21 04:08:41;;;;;;;2.63;1.95;;;;;24.30;100537.00;;;;2032733;29;20221;-67
2022/06/21 04:09:50;;;;;;;1.80;1.30;;;;;24.30;100541.00;;;;2034343;29;20241;-67
2022/06/21 04:11:06;;;;;;;2.08;1.50;;;;;24.30;100533.00;;;;2046871;28;20595;-67
2022/06/21 04:12:11;;;;;;;1.98;1.70;;;;;24.30;100527.00;;;;2037633;29;20271;-67
2022/06/21 04:13:31;;;;;;;2.33;1.77;;;;;24.20;100541.00;;;;2039609;29;20221;-67
2022/06/21 04:14:39;;;;;;;2.00;1.45;;;;;24.30;100529.00;;;;2042968;28;20220;-67
2022/06/21 04:16:05;;;;;;;3.28;1.98;;;;;24.30;100541.00;;;;2042960;28;20228;-67
2022/06/21 04:17:19;;;;;;;1.90;1.58;;;;;24.30;100529.00;;;;2011109;29;20342;-67
2022/06/21 04:18:22;;;;;;;2.95;1.60;;;;;24.30;100540.00;;;;2039311;28;20226;-67
2022/06/21 04:19:37;;;;;;;2.38;1.65;;;;;24.30;100531.00;;;;2042335;28;20568;-67
2022/06/21 04:20:50;;;;;;;1.67;1.52;;;;;24.30;100540.00;;;;2043385;28;20322;-67
2022/06/21 04:21:59;;;;;;;1.50;1.40;;;;;24.30;100528.00;;;;2043347;28;20232;-67
2022/06/21 04:23:02;;;;;;;1.92;1.80;;;;;24.30;100524.00;;;;2042409;28;20220;-67
2022/06/21 04:24:21;;;;;;;1.98;1.60;;;;;24.30;100526.00;;;;2042875;28;20216;-67
2022/06/21 04:25:38;;;;;;;2.30;1.70;;;;;24.30;100529.00;;;;2041420;28;20216;-66
2022/06/21 04:26:47;;;;;;;1.58;1.40;;;;;24.30;100531.00;;;;2043937;28;20696;-67
2022/06/21 04:27:52;;;;;;;2.42;2.10;;;;;24.30;100526.00;;;;2043436;28;20654;-67
2022/06/21 04:29:10;;;;;;;2.65;1.92;;;;;24.30;100531.00;;;;2042656;28;20220;-67
2022/06/21 04:30:12;;;;;;;1.70;1.55;;;;;24.30;100528.00;;;;2040238;29;20220;-67
2022/06/21 04:31:25;;;;;;;2.03;1.80;;;;;24.30;100532.00;;;;2042935;28;20227;-67
2022/06/21 04:32:36;;;;;;;2.97;1.60;;;;;24.30;100546.00;;;;2037917;29;20216;-67
2022/06/21 04:34:07;;;;;;;1.95;1.58;;;;;24.00;100545.00;;;;2040653;29;20213;-67
2022/06/21 04:35:21;;;;;;;1.67;1.30;;;;;24.30;100551.00;;;;2040266;28;20217;-67
2022/06/21 04:36:25;;;;;;;2.53;1.95;;;;;24.30;100534.00;;;;2042621;28;20218;-67
2022/06/21 04:37:42;;;;;;;2.03;1.60;;;;;24.30;100523.00;;;;2034322;28;20213;-67
2022/06/21 04:39:19;;;;;;;2.65;1.95;;;;;24.20;100519.00;;;;2038898;28;20228;-67
2022/06/21 04:40:40;;;;;;;1.92;1.65;;;;;24.30;100528.00;;;;2039450;28;20312;-67
2022/06/21 04:41:59;;;;;;;1.98;1.60;;;;;24.30;100518.00;;;;2040106;28;20738;-67
2022/06/21 04:43:21;;;;;;;2.35;1.63;;;;;24.30;100499.00;;;;2043193;28;20542;-67
2022/06/21 04:44:30;;;;;;;2.00;1.80;;;;;24.30;100512.00;;;;2038507;28;20193;-67
2022/06/21 04:45:41;;;;;;;2.50;2.25;;;;;24.30;100526.00;;;;2038359;28;20871;-67
2022/06/21 04:46:48;;;;;;;1.60;1.48;;;;;24.30;100500.00;;;;2038792;29;20228;-67
2022/06/21 04:48:04;;;;;;;2.75;1.75;;;;;24.30;100507.00;;;;2036457;29;20345;-66
2022/06/21 04:49:17;;;;;;;2.35;1.83;;;;;24.30;100520.00;;;;2037480;29;20256;-67
2022/06/21 04:50:27;;;;;;;1.95;1.45;;;;;24.30;100523.00;;;;2042944;28;20584;-66
2022/06/21 04:51:34;;;;;;;1.70;1.58;;;;;24.30;100504.00;;;;2041952;28;20221;-67
2022/06/21 04:52:38;;;;;;;1.90;1.75;;;;;24.20;100516.00;;;;2036567;28;20210;-66
2022/06/21 04:53:44;;;;;;;2.13;1.75;;;;;24.30;100515.00;;;;2036011;29;20259;-67
2022/06/21 04:54:45;;;;;;;2.30;1.80;;;;;24.20;100514.00;;;;2042814;28;20224;-66
2022/06/21 04:55:55;;;;;;;2.90;1.70;;;;;24.30;100496.00;;;;2043357;28;20687;-67
2022/06/21 04:57:07;;;;;;;2.05;1.85;;;;;24.30;100507.00;;;;2028281;29;20217;-67
2022/06/21 04:58:09;;;;;;;2.42;2.03;;;;;24.30;100502.00;;;;2033883;29;20241;-67
2022/06/21 04:59:25;;;;;;;3.65;1.90;;;;;24.30;100510.00;;;;2044070;28;20252;-66
2022/06/21 05:00:26;;;;;;;2.00;1.80;;;;;24.30;100507.00;;;;2033166;28;20589;-66
2022/06/21 05:01:37;;;;;;;2.10;1.60;;;;;24.30;100511.00;;;;2043507;28;20240;-67
2022/06/21 05:02:40;;;;;;;2.85;1.65;;;;;24.30;100514.00;;;;2045142;28;20225;-67
2022/06/21 05:03:41;;;;;;;1.88;1.63;;;;;24.30;100516.00;;;;2043569;28;20230;-68
2022/06/21 05:04:42;;;;;;;1.90;1.70;;;;;24.30;100524.00;;;;2045231;28;20279;-66
2022/06/21 05:05:42;;;;;;;2.20;1.67;;;;;24.30;100520.00;;;;2035799;28;20705;-67
2022/06/21 05:06:43;;;;;;;2.80;1.90;;;;;24.30;100524.00;;;;2043600;28;20224;-67
2022/06/21 05:07:52;;;;;;;2.20;2.00;;;;;24.30;100517.00;;;;2044373;28;20223;-67
2022/06/21 05:08:52;;;;;;;1.65;1.55;;;;;24.30;100521.00;;;;2043032;28;20600;-66
2022/06/21 05:09:53;;;;;;;1.93;1.70;;;;;24.30;100510.00;;;;2035245;28;20228;-67
2022/06/21 05:10:56;;;;;;;2.10;1.73;;;;;24.30;100518.00;;;;2044226;29;20228;-67
2022/06/21 05:12:03;;;;;;;1.65;1.55;;;;;24.30;100516.00;;;;2027778;29;20466;-67
2022/06/21 05:13:06;;;;;;;2.80;1.75;;;;;24.30;100499.00;;;;2036225;29;20731;-67
2022/06/21 05:14:15;;;;;;;3.17;2.05;;;;;24.30;100511.00;;;;2027683;29;20233;-67
2022/06/21 05:15:18;;;;;;;1.95;1.70;;;;;24.30;100505.00;;;;2036436;28;20850;-67
2022/06/21 05:16:26;;;;;;;3.83;1.80;;;;;24.30;100497.00;;;;2043632;28;20655;-67
2022/06/21 05:17:26;;;;;;;2.75;1.83;;;;;24.30;100478.00;;;;2043873;28;20307;-67
2022/06/21 05:18:37;;;;;;;2.00;1.80;;;;;24.30;100496.00;;;;2043256;29;20212;-67
2022/06/21 05:19:39;;;;;;;2.80;2.00;;;;;24.30;100497.00;;;;2042887;28;20213;-67
2022/06/21 05:20:53;;;;;;;2.47;1.60;;;;;24.30;100498.00;;;;2042917;28;20232;-67
2022/06/21 05:21:57;;;;;;;2.65;2.00;;;;;24.30;100481.00;;;;2037596;28;20223;-67
2022/06/21 05:23:01;;;;;;;3.25;2.00;;;;;24.30;100500.00;;;;2028766;29;20240;-66
2022/06/21 05:24:01;;;;;;;1.83;1.65;;;;;24.30;100500.00;;;;2022869;29;20221;-67
2022/06/21 05:25:02;;;;;;;2.30;1.80;;;;;24.30;100505.00;;;;2035992;28;20597;-67
2022/06/21 05:26:06;;;;;;;2.50;1.93;;;;;24.30;100506.00;;;;2035103;29;20221;-67
2022/06/21 05:27:11;;;;;;;2.88;1.65;;;;;24.30;100507.00;;;;2038469;29;20992;-67
2022/06/21 05:28:39;;;;;;;2.53;1.65;;;;;24.30;100510.00;;;;2038034;29;20220;-67